createdAt,value
2018-05-13T00:01:36.025Z,12.90
2018-05-13T00:04:04.772Z,12.80
2018-05-13T00:06:32.453Z,12.80
2018-05-13T00:09:01.152Z,12.80
2018-05-13T00:11:31.104Z,12.80
2018-05-13T00:13:59.124Z,12.80
2018-05-13T00:16:27.915Z,12.90
2018-05-13T00:18:55.955Z,13.00
2018-05-13T00:21:23.743Z,13.10
2018-05-13T00:23:51.686Z,13.10
2018-05-13T00:26:19.575Z,13.20
2018-05-13T00:28:47.972Z,13.20
2018-05-13T00:31:15.946Z,13.30
2018-05-13T00:33:43.729Z,13.30
2018-05-13T00:36:13.292Z,13.40
2018-05-13T00:38:41.216Z,13.40
2018-05-13T00:41:10.191Z,13.40
2018-05-13T00:43:39.212Z,13.40
2018-05-13T00:46:08.419Z,13.30
2018-05-13T00:48:37.087Z,13.30
2018-05-13T00:51:08.420Z,13.20
2018-05-13T00:53:37.494Z,13.10
2018-05-13T00:56:06.104Z,13.20
2018-05-13T00:58:34.050Z,13.10
2018-05-13T01:01:02.055Z,13.10
2018-05-13T01:03:30.730Z,13.10
2018-05-13T01:05:59.335Z,13.10
2018-05-13T01:08:27.876Z,13.20
2018-05-13T01:10:55.957Z,13.10
2018-05-13T01:13:24.490Z,13.20
2018-05-13T01:15:52.505Z,13.20
2018-05-13T01:18:21.037Z,13.30
2018-05-13T01:20:49.695Z,13.30
2018-05-13T01:23:18.224Z,13.20
2018-05-13T01:25:46.138Z,13.30
2018-05-13T01:28:14.767Z,13.40
2018-05-13T01:30:42.658Z,13.30
2018-05-13T01:33:10.518Z,13.30
2018-05-13T01:35:39.280Z,13.30
2018-05-13T01:38:07.997Z,13.20
2018-05-13T01:40:36.919Z,13.10
2018-05-13T01:43:04.822Z,13.10
2018-05-13T01:45:33.464Z,13.10
2018-05-13T01:48:01.326Z,13.00
2018-05-13T01:50:29.114Z,13.00
2018-05-13T01:52:56.989Z,13.00
2018-05-13T01:55:24.831Z,12.90
2018-05-13T01:57:52.738Z,12.90
2018-05-13T02:00:20.685Z,12.80
2018-05-13T02:02:49.429Z,12.80
2018-05-13T02:05:17.256Z,12.70
2018-05-13T02:07:45.053Z,12.70
2018-05-13T02:10:13.626Z,12.60
2018-05-13T02:12:43.027Z,12.50
2018-05-13T02:15:11.704Z,12.50
2018-05-13T02:17:39.452Z,12.40
2018-05-13T02:20:07.275Z,12.40
2018-05-13T02:22:35.203Z,12.40
2018-05-13T02:25:04.304Z,12.40
2018-05-13T02:27:32.128Z,12.40
2018-05-13T02:29:59.841Z,12.40
2018-05-13T02:32:27.601Z,12.40
2018-05-13T02:34:55.433Z,12.40
2018-05-13T02:37:23.102Z,12.40
2018-05-13T02:39:51.065Z,12.40
2018-05-13T02:42:18.611Z,12.50
2018-05-13T02:44:47.282Z,12.50
2018-05-13T02:47:15.643Z,12.60
2018-05-13T02:49:43.454Z,12.60
2018-05-13T02:52:11.470Z,12.60
2018-05-13T02:54:40.675Z,12.50
2018-05-13T02:57:08.552Z,12.50
2018-05-13T02:59:36.862Z,12.50
2018-05-13T03:02:04.743Z,12.40
2018-05-13T03:04:32.509Z,12.40
2018-05-13T03:07:00.432Z,12.40
2018-05-13T03:09:29.056Z,12.40
2018-05-13T03:11:57.780Z,12.30
2018-05-13T03:14:25.600Z,12.40
2018-05-13T03:16:53.379Z,12.40
2018-05-13T03:19:21.760Z,12.40
2018-05-13T03:21:49.880Z,12.40
2018-05-13T03:24:18.467Z,12.50
2018-05-13T03:26:47.125Z,12.50
2018-05-13T03:29:15.071Z,12.50
2018-05-13T03:31:42.828Z,12.60
2018-05-13T03:34:10.653Z,12.60
2018-05-13T03:36:38.632Z,12.60
2018-05-13T03:39:07.293Z,12.60
2018-05-13T03:41:35.050Z,12.50
2018-05-13T03:44:02.972Z,12.60
2018-05-13T03:46:30.769Z,12.60
2018-05-13T03:48:58.779Z,12.60
2018-05-13T03:51:26.575Z,12.50
2018-05-13T03:53:55.501Z,12.40
2018-05-13T03:56:23.416Z,12.30
2018-05-13T03:58:52.037Z,12.40
2018-05-13T04:01:20.615Z,12.30
2018-05-13T04:03:48.460Z,12.30
2018-05-13T04:06:17.196Z,12.20
2018-05-13T04:08:57.298Z,12.20
2018-05-13T04:11:37.401Z,12.20
2018-05-13T04:14:16.919Z,12.20
2018-05-13T04:16:44.501Z,12.20
2018-05-13T04:19:13.263Z,12.30
2018-05-13T04:21:41.943Z,12.40
2018-05-13T04:24:10.590Z,12.50
2018-05-13T04:26:39.142Z,12.50
2018-05-13T04:29:07.263Z,12.60
2018-05-13T04:31:34.650Z,12.60
2018-05-13T04:34:03.242Z,12.70
2018-05-13T04:36:31.133Z,12.80
2018-05-13T04:39:00.005Z,12.90
2018-05-13T04:41:28.263Z,13.00
2018-05-13T04:43:56.671Z,13.20
2018-05-13T04:46:24.663Z,13.10
2018-05-13T04:48:52.358Z,13.30
2018-05-13T04:51:20.411Z,13.40
2018-05-13T04:53:48.720Z,13.40
2018-05-13T04:56:16.840Z,13.50
2018-05-13T04:58:45.260Z,13.60
2018-05-13T05:01:13.229Z,13.70
2018-05-13T05:03:40.841Z,13.90
2018-05-13T05:06:08.791Z,13.90
2018-05-13T05:08:38.341Z,14.10
2018-05-13T05:11:06.669Z,14.10
2018-05-13T05:13:35.434Z,14.40
2018-05-13T05:16:04.012Z,14.30
2018-05-13T05:18:33.150Z,14.50
2018-05-13T05:21:02.109Z,14.70
2018-05-13T05:23:30.546Z,14.60
2018-05-13T05:25:58.678Z,14.80
2018-05-13T05:28:26.634Z,14.90
2018-05-13T05:30:54.750Z,15.00
2018-05-13T05:33:23.411Z,15.30
2018-05-13T05:35:50.987Z,15.50
2018-05-13T05:38:19.328Z,15.70
2018-05-13T05:40:48.060Z,15.90
2018-05-13T05:43:16.135Z,16.10
2018-05-13T05:45:43.891Z,16.40
2018-05-13T05:48:11.591Z,16.60
2018-05-13T05:50:39.458Z,16.80
2018-05-13T05:53:08.630Z,17.00
2018-05-13T05:55:36.769Z,17.00
2018-05-13T05:58:04.923Z,17.00
2018-05-13T06:00:32.989Z,17.00
2018-05-13T06:03:00.854Z,17.10
2018-05-13T06:05:28.546Z,17.20
2018-05-13T06:07:57.427Z,17.20
2018-05-13T06:10:25.712Z,17.10
2018-05-13T06:12:53.530Z,17.10
2018-05-13T06:15:21.146Z,17.00
2018-05-13T06:17:49.089Z,16.90
2018-05-13T06:20:17.017Z,16.90
2018-05-13T06:22:46.536Z,17.00
2018-05-13T06:25:14.433Z,17.00
2018-05-13T06:27:42.393Z,17.20
2018-05-13T06:30:10.432Z,17.30
2018-05-13T06:32:38.992Z,17.40
2018-05-13T06:35:07.530Z,17.40
2018-05-13T06:37:35.248Z,17.60
2018-05-13T06:40:04.057Z,17.90
2018-05-13T06:42:32.947Z,18.40
2018-05-13T06:45:01.013Z,18.40
2018-05-13T06:47:32.241Z,18.90
2018-05-13T06:50:00.374Z,18.80
2018-05-13T06:52:28.944Z,19.10
2018-05-13T06:54:56.561Z,19.30
2018-05-13T06:57:24.917Z,19.50
2018-05-13T06:59:52.818Z,19.70
2018-05-13T07:02:22.591Z,20.00
2018-05-13T07:04:51.861Z,19.90
2018-05-13T07:07:19.511Z,20.10
2018-05-13T07:09:48.057Z,20.40
2018-05-13T07:12:15.989Z,20.40
2018-05-13T07:14:44.276Z,20.50
2018-05-13T07:17:12.254Z,20.60
2018-05-13T07:19:40.052Z,20.70
2018-05-13T07:22:07.741Z,20.70
2018-05-13T07:24:37.288Z,20.80
2018-05-13T07:27:05.928Z,20.80
2018-05-13T07:29:34.967Z,20.90
2018-05-13T07:32:04.200Z,20.80
2018-05-13T07:34:33.060Z,21.10
2018-05-13T07:37:02.063Z,21.00
2018-05-13T07:39:29.915Z,21.20
2018-05-13T07:41:58.504Z,21.30
2018-05-13T07:44:26.189Z,21.40
2018-05-13T07:46:54.482Z,21.50
2018-05-13T07:49:23.126Z,21.70
2018-05-13T07:51:51.742Z,21.60
2018-05-13T07:54:19.655Z,21.80
2018-05-13T07:56:48.357Z,21.80
2018-05-13T07:59:16.868Z,21.80
2018-05-13T08:01:44.968Z,22.00
2018-05-13T08:04:12.904Z,22.10
2018-05-13T08:06:41.571Z,22.20
2018-05-13T08:09:09.277Z,22.30
2018-05-13T08:11:37.264Z,22.40
2018-05-13T08:14:05.287Z,22.60
2018-05-13T08:16:34.494Z,22.70
2018-05-13T08:19:02.333Z,22.60
2018-05-13T08:21:30.100Z,22.70
2018-05-13T08:23:58.822Z,22.70
2018-05-13T08:26:26.661Z,22.60
2018-05-13T08:28:55.584Z,22.90
2018-05-13T08:31:23.427Z,22.90
2018-05-13T08:33:51.549Z,23.10
2018-05-13T08:36:19.229Z,23.20
2018-05-13T08:38:46.875Z,23.40
2018-05-13T08:41:14.673Z,23.40
2018-05-13T08:43:43.324Z,23.60
2018-05-13T08:46:11.686Z,23.60
2018-05-13T08:48:39.897Z,23.50
2018-05-13T08:51:08.502Z,23.70
2018-05-13T08:53:36.866Z,23.80
2018-05-13T08:56:05.789Z,23.70
2018-05-13T08:58:33.844Z,23.80
2018-05-13T09:01:03.041Z,24.00
2018-05-13T09:03:31.631Z,24.00
2018-05-13T09:06:00.977Z,24.00
2018-05-13T09:08:29.347Z,23.90
2018-05-13T09:10:57.707Z,24.00
2018-05-13T09:13:25.728Z,24.10
2018-05-13T09:15:53.920Z,24.20
2018-05-13T09:18:23.973Z,24.20
2018-05-13T09:20:51.931Z,24.30
2018-05-13T09:23:19.423Z,24.30
2018-05-13T09:25:47.571Z,24.40
2018-05-13T09:28:16.109Z,24.40
2018-05-13T09:30:45.644Z,24.40
2018-05-13T09:33:14.350Z,24.70
2018-05-13T09:35:43.157Z,24.80
2018-05-13T09:38:12.012Z,24.90
2018-05-13T09:40:40.878Z,24.90
2018-05-13T09:43:09.497Z,25.00
2018-05-13T09:45:37.398Z,25.10
2018-05-13T09:48:05.305Z,25.10
2018-05-13T09:50:33.165Z,25.10
2018-05-13T09:53:01.030Z,25.10
2018-05-13T09:55:28.834Z,25.20
2018-05-13T09:57:57.565Z,25.50
2018-05-13T10:00:25.278Z,25.50
2018-05-13T10:02:53.126Z,25.60
2018-05-13T10:05:21.974Z,25.80
2018-05-13T10:07:49.772Z,25.80
2018-05-13T10:10:18.227Z,25.90
2018-05-13T10:12:46.589Z,26.00
2018-05-13T10:15:14.998Z,26.00
2018-05-13T10:17:43.035Z,25.90
2018-05-13T10:20:12.597Z,25.90
2018-05-13T10:22:40.457Z,25.80
2018-05-13T10:25:09.533Z,26.00
2018-05-13T10:27:37.565Z,26.00
2018-05-13T10:30:06.250Z,26.10
2018-05-13T10:32:33.924Z,26.00
2018-05-13T10:35:02.560Z,26.20
2018-05-13T10:37:30.493Z,26.20
2018-05-13T10:39:59.675Z,26.40
2018-05-13T10:42:27.773Z,26.40
2018-05-13T10:44:57.333Z,26.40
2018-05-13T10:47:25.595Z,26.30
2018-05-13T10:49:53.753Z,26.20
2018-05-13T10:52:22.312Z,26.10
2018-05-13T10:54:51.244Z,26.10
2018-05-13T10:57:20.000Z,26.00
2018-05-13T10:59:48.330Z,26.20
2018-05-13T11:02:16.296Z,26.30
2018-05-13T11:04:45.369Z,26.50
2018-05-13T11:07:13.963Z,26.40
2018-05-13T11:09:41.727Z,26.50
2018-05-13T11:12:10.642Z,26.60
2018-05-13T11:14:39.152Z,26.60
2018-05-13T11:17:08.431Z,26.70
2018-05-13T11:19:36.120Z,26.70
2018-05-13T11:22:04.353Z,26.80
2018-05-13T11:24:33.687Z,26.80
2018-05-13T11:27:02.528Z,26.80
2018-05-13T11:29:30.291Z,26.80
2018-05-13T11:31:58.505Z,26.80
2018-05-13T11:34:27.118Z,26.80
2018-05-13T11:36:55.814Z,26.80
2018-05-13T11:39:23.779Z,26.70
2018-05-13T11:41:52.471Z,26.80
2018-05-13T11:44:21.264Z,26.80
2018-05-13T11:46:50.302Z,26.80
2018-05-13T11:49:18.295Z,26.70
2018-05-13T11:51:47.395Z,26.70
2018-05-13T11:54:15.441Z,26.80
2018-05-13T11:56:43.139Z,26.80
2018-05-13T11:59:12.106Z,27.10
2018-05-13T12:01:39.853Z,27.10
2018-05-13T12:04:08.745Z,27.30
2018-05-13T12:06:36.988Z,27.30
2018-05-13T12:09:07.005Z,27.30
2018-05-13T12:11:35.695Z,27.40
2018-05-13T12:14:04.399Z,27.50
2018-05-13T12:16:32.497Z,27.50
2018-05-13T12:19:01.474Z,27.60
2018-05-13T12:21:29.343Z,27.60
2018-05-13T12:23:57.409Z,27.70
2018-05-13T12:26:25.242Z,27.60
2018-05-13T12:28:53.397Z,27.50
2018-05-13T12:31:22.214Z,27.50
2018-05-13T12:33:52.040Z,27.50
2018-05-13T12:36:20.537Z,27.50
2018-05-13T12:38:48.124Z,27.60
2018-05-13T12:41:16.604Z,27.50
2018-05-13T12:43:45.471Z,27.30
2018-05-13T12:46:14.125Z,27.30
2018-05-13T12:48:43.483Z,27.30
2018-05-13T12:51:12.035Z,27.00
2018-05-13T12:53:40.820Z,26.60
2018-05-13T12:56:10.402Z,26.60
2018-05-13T12:58:38.262Z,26.60
2018-05-13T13:01:06.114Z,26.80
2018-05-13T13:03:34.114Z,26.90
2018-05-13T13:06:02.491Z,26.90
2018-05-13T13:08:30.092Z,26.90
2018-05-13T13:10:58.916Z,26.80
2018-05-13T13:13:26.721Z,26.80
2018-05-13T13:15:55.025Z,26.90
2018-05-13T13:18:24.070Z,27.00
2018-05-13T13:20:53.076Z,27.20
2018-05-13T13:23:22.301Z,27.20
2018-05-13T13:25:50.706Z,27.10
2018-05-13T13:28:19.014Z,27.10
2018-05-13T13:30:47.788Z,27.00
2018-05-13T13:33:16.706Z,27.00
2018-05-13T13:35:46.622Z,26.90
2018-05-13T13:38:15.531Z,26.90
2018-05-13T13:40:46.739Z,27.00
2018-05-13T13:43:15.310Z,27.20
2018-05-13T13:45:43.882Z,27.30
2018-05-13T13:48:12.070Z,27.40
2018-05-13T13:50:39.974Z,27.30
2018-05-13T13:53:09.201Z,27.10
2018-05-13T13:55:37.971Z,27.00
2018-05-13T13:58:07.292Z,27.00
2018-05-13T14:00:35.063Z,27.00
2018-05-13T14:03:03.701Z,26.90
2018-05-13T14:05:31.254Z,26.80
2018-05-13T14:08:00.490Z,26.90
2018-05-13T14:10:28.692Z,26.90
2018-05-13T14:12:58.376Z,26.70
2018-05-13T14:15:26.295Z,26.70
2018-05-13T14:17:55.197Z,26.70
2018-05-13T14:20:23.913Z,26.60
2018-05-13T14:22:52.551Z,26.60
2018-05-13T14:25:20.297Z,26.60
2018-05-13T14:27:49.574Z,26.50
2018-05-13T14:30:17.409Z,26.50
2018-05-13T14:32:44.991Z,26.30
2018-05-13T14:35:13.015Z,26.30
2018-05-13T14:37:41.865Z,26.40
2018-05-13T14:40:09.611Z,26.40
2018-05-13T14:42:37.228Z,26.60
2018-05-13T14:45:06.471Z,26.70
2018-05-13T14:47:34.643Z,26.70
2018-05-13T14:50:03.025Z,26.60
2018-05-13T14:52:31.141Z,26.60
2018-05-13T14:54:59.782Z,26.60
2018-05-13T14:57:28.668Z,26.40
2018-05-13T14:59:56.622Z,26.20
2018-05-13T15:02:25.150Z,26.10
2018-05-13T15:04:53.218Z,26.10
2018-05-13T15:07:30.493Z,25.90
2018-05-13T15:09:58.295Z,25.80
2018-05-13T15:12:26.661Z,25.60
2018-05-13T15:14:54.905Z,25.50
2018-05-13T15:17:23.275Z,25.50
2018-05-13T15:19:51.698Z,25.70
2018-05-13T15:22:20.214Z,25.60
2018-05-13T15:24:48.811Z,25.50
2018-05-13T15:27:17.210Z,25.30
2018-05-13T15:29:44.757Z,25.30
2018-05-13T15:32:13.223Z,25.30
2018-05-13T15:34:40.712Z,25.30
2018-05-13T15:37:08.871Z,25.40
2018-05-13T15:39:36.713Z,25.50
2018-05-13T15:42:05.335Z,25.50
2018-05-13T15:44:33.016Z,25.40
2018-05-13T15:47:00.531Z,25.40
2018-05-13T15:49:28.680Z,25.30
2018-05-13T15:51:56.870Z,25.10
2018-05-13T15:54:24.713Z,25.00
2018-05-13T15:56:52.258Z,24.80
2018-05-13T15:59:19.759Z,24.50
2018-05-13T16:01:47.011Z,24.30
2018-05-13T16:04:15.703Z,23.80
2018-05-13T16:06:43.473Z,23.70
2018-05-13T16:09:11.014Z,23.50
2018-05-13T16:11:38.294Z,23.40
2018-05-13T16:14:06.134Z,23.20
2018-05-13T16:16:33.200Z,23.10
2018-05-13T16:19:00.762Z,23.00
2018-05-13T16:21:28.780Z,22.90
2018-05-13T16:23:56.600Z,22.80
2018-05-13T16:26:24.102Z,22.70
2018-05-13T16:28:52.301Z,22.60
2018-05-13T16:31:20.084Z,22.50
2018-05-13T16:33:48.396Z,22.30
2018-05-13T16:36:17.784Z,22.20
2018-05-13T16:38:45.276Z,22.20
2018-05-13T16:41:13.060Z,22.10
2018-05-13T16:43:41.417Z,22.10
2018-05-13T16:46:10.173Z,21.90
2018-05-13T16:48:38.313Z,21.90
2018-05-13T16:51:05.875Z,21.90
2018-05-13T16:53:33.655Z,21.80
2018-05-13T16:56:01.809Z,21.80
2018-05-13T16:58:29.717Z,21.70
2018-05-13T17:00:57.670Z,21.60
2018-05-13T17:03:26.647Z,21.50
2018-05-13T17:05:55.111Z,21.50
2018-05-13T17:08:24.634Z,21.40
2018-05-13T17:10:54.033Z,21.30
2018-05-13T17:13:21.913Z,21.30
2018-05-13T17:15:50.118Z,21.30
2018-05-13T17:18:17.835Z,21.30
2018-05-13T17:20:45.517Z,21.20
2018-05-13T17:23:13.067Z,21.10
2018-05-13T17:25:41.034Z,21.00
2018-05-13T17:28:08.620Z,20.90
2018-05-13T17:30:36.481Z,20.90
2018-05-13T17:33:04.009Z,20.90
2018-05-13T17:35:31.740Z,20.80
2018-05-13T17:38:00.359Z,20.70
2018-05-13T17:40:28.169Z,20.60
2018-05-13T17:42:56.685Z,20.70
2018-05-13T17:45:25.096Z,20.50
2018-05-13T17:47:52.815Z,20.40
2018-05-13T17:50:21.288Z,20.40
2018-05-13T17:52:48.795Z,20.30
2018-05-13T17:55:16.290Z,20.30
2018-05-13T17:57:43.786Z,20.30
2018-05-13T18:00:16.751Z,20.20
2018-05-13T18:02:53.900Z,20.20
2018-05-13T18:05:26.071Z,20.10
2018-05-13T18:07:57.795Z,20.10
2018-05-13T18:10:26.824Z,20.00
2018-05-13T18:12:56.354Z,19.90
2018-05-13T18:15:26.903Z,19.90
2018-05-13T18:17:57.832Z,19.80
2018-05-13T18:20:28.466Z,19.70
2018-05-13T18:22:58.488Z,19.60
2018-05-13T18:25:27.711Z,19.50
2018-05-13T18:27:57.697Z,19.40
2018-05-13T18:30:29.073Z,19.30
2018-05-13T18:32:57.959Z,19.30
2018-05-13T18:35:27.548Z,19.20
2018-05-13T18:37:57.367Z,19.10
2018-05-13T18:40:27.223Z,19.10
2018-05-13T18:42:58.636Z,18.90
2018-05-13T18:45:29.332Z,18.90
2018-05-13T18:47:58.726Z,18.80
2018-05-13T18:50:35.155Z,18.70
2018-05-13T18:53:09.211Z,18.50
2018-05-13T18:55:40.311Z,18.50
2018-05-13T18:58:08.516Z,18.50
2018-05-13T19:00:37.846Z,18.30
2018-05-13T19:03:08.237Z,18.20
2018-05-13T19:05:38.954Z,18.20
2018-05-13T19:08:07.872Z,18.00
2018-05-13T19:10:37.916Z,17.80
2018-05-13T19:13:07.787Z,17.70
2018-05-13T19:15:37.713Z,17.70
2018-05-13T19:18:08.753Z,17.70
2018-05-13T19:20:38.438Z,17.60
2018-05-13T19:23:08.056Z,17.50
2018-05-13T19:25:38.620Z,17.50
2018-05-13T19:28:07.072Z,17.50
2018-05-13T19:30:34.873Z,17.40
2018-05-13T19:33:04.104Z,17.50
2018-05-13T19:35:32.009Z,17.40
2018-05-13T19:37:59.809Z,17.40
2018-05-13T19:40:28.571Z,17.30
2018-05-13T19:42:56.373Z,17.20
2018-05-13T19:45:25.153Z,17.10
2018-05-13T19:47:53.746Z,17.10
2018-05-13T19:50:22.256Z,17.00
2018-05-13T19:52:50.091Z,17.00
2018-05-13T19:55:18.696Z,16.80
2018-05-13T19:57:46.542Z,16.80
2018-05-13T20:00:15.451Z,16.80
2018-05-13T20:02:42.991Z,16.70
2018-05-13T20:05:13.351Z,16.70
2018-05-13T20:07:40.954Z,16.60
2018-05-13T20:10:09.501Z,16.60
2018-05-13T20:12:37.985Z,16.50
2018-05-13T20:15:05.705Z,16.50
2018-05-13T20:17:34.047Z,16.30
2018-05-13T20:20:01.573Z,16.30
2018-05-13T20:22:29.234Z,16.20
2018-05-13T20:24:58.149Z,16.20
2018-05-13T20:27:25.959Z,16.20
2018-05-13T20:29:53.634Z,16.20
2018-05-13T20:32:22.257Z,16.20
2018-05-13T20:34:50.673Z,16.10
2018-05-13T20:37:18.575Z,16.20
2018-05-13T20:39:47.171Z,16.20
2018-05-13T20:42:14.931Z,16.10
2018-05-13T20:44:43.620Z,16.20
2018-05-13T20:47:12.165Z,16.20
2018-05-13T20:49:39.704Z,16.10
2018-05-13T20:52:07.959Z,16.20
2018-05-13T20:54:35.713Z,16.20
2018-05-13T20:57:03.633Z,16.20
2018-05-13T20:59:31.533Z,16.20
2018-05-13T21:01:59.070Z,16.20
2018-05-13T21:04:26.779Z,16.20
2018-05-13T21:06:54.488Z,16.20
2018-05-13T21:09:22.390Z,16.20
2018-05-13T21:11:50.919Z,16.10
2018-05-13T21:14:18.645Z,16.10
2018-05-13T21:16:47.943Z,16.00
2018-05-13T21:19:17.034Z,16.00
2018-05-13T21:21:46.309Z,15.90
2018-05-13T21:24:16.000Z,16.00
2018-05-13T21:26:44.659Z,16.00
2018-05-13T21:29:12.374Z,16.00
2018-05-13T21:31:41.694Z,15.90
2018-05-13T21:34:10.446Z,15.80
2018-05-13T21:36:38.237Z,15.90
2018-05-13T21:39:07.039Z,15.80
2018-05-13T21:41:35.915Z,15.80
2018-05-13T21:44:04.789Z,15.80
2018-05-13T21:46:32.936Z,15.80
2018-05-13T21:49:01.400Z,15.70
2018-05-13T21:51:29.864Z,15.70
2018-05-13T21:53:58.625Z,15.70
2018-05-13T21:56:26.378Z,15.60
2018-05-13T21:58:54.034Z,15.70
2018-05-13T22:01:22.241Z,15.70
2018-05-13T22:03:50.753Z,15.70
2018-05-13T22:06:19.686Z,15.60
2018-05-13T22:08:47.512Z,15.60
2018-05-13T22:11:17.186Z,15.60
2018-05-13T22:13:45.007Z,15.60
2018-05-13T22:16:12.671Z,15.60
2018-05-13T22:18:41.421Z,15.60
2018-05-13T22:21:09.388Z,15.60
2018-05-13T22:23:38.099Z,15.60
2018-05-13T22:26:07.008Z,15.60
2018-05-13T22:28:34.630Z,15.60
2018-05-13T22:31:02.424Z,15.60
2018-05-13T22:33:31.396Z,15.70
2018-05-13T22:35:59.977Z,15.60
2018-05-13T22:38:27.751Z,15.70
2018-05-13T22:40:55.591Z,15.60
2018-05-13T22:43:23.371Z,15.60
2018-05-13T22:45:51.174Z,15.60
2018-05-13T22:48:19.729Z,15.70
2018-05-13T22:50:48.273Z,15.60
2018-05-13T22:53:16.936Z,15.70
2018-05-13T22:55:44.758Z,15.70
2018-05-13T22:58:12.592Z,15.70
2018-05-13T23:00:41.356Z,15.70
2018-05-13T23:03:09.114Z,15.70
2018-05-13T23:05:38.134Z,15.70
2018-05-13T23:08:05.927Z,15.70
2018-05-13T23:10:34.203Z,15.70
2018-05-13T23:13:03.396Z,15.80
2018-05-13T23:15:32.175Z,15.70
2018-05-13T23:18:01.327Z,15.70
2018-05-13T23:20:30.348Z,15.60
2018-05-13T23:22:58.383Z,15.50
2018-05-13T23:25:27.026Z,15.50
2018-05-13T23:27:54.871Z,15.50
2018-05-13T23:30:23.792Z,15.40
2018-05-13T23:32:51.741Z,15.40
2018-05-13T23:35:19.488Z,15.30
2018-05-13T23:37:48.100Z,15.20
2018-05-13T23:40:15.706Z,15.20
2018-05-13T23:42:43.252Z,15.20
2018-05-13T23:45:11.116Z,15.10
2018-05-13T23:47:39.811Z,15.10
2018-05-13T23:50:07.431Z,15.00
2018-05-13T23:52:35.340Z,15.00
2018-05-13T23:55:04.457Z,14.90
2018-05-13T23:57:33.164Z,14.80
